createdAt,value
2017-07-30T16:47:05.444Z,29.16
2017-07-30T16:47:46.125Z,29.12
2017-07-30T16:48:26.720Z,29.17
2017-07-30T16:49:07.346Z,29.1
2017-07-30T16:49:47.964Z,29.14
2017-07-30T16:50:28.546Z,29.08
2017-07-30T16:51:09.117Z,29.05
2017-07-30T16:51:49.705Z,29.01
2017-07-30T16:52:30.276Z,29.04
2017-07-30T16:53:10.863Z,29.08
2017-07-30T16:53:51.434Z,28.98
2017-07-30T16:54:32.007Z,29.04
2017-07-30T16:55:12.625Z,28.97
2017-07-30T16:55:53.216Z,28.93
2017-07-30T16:56:33.817Z,28.93
2017-07-30T16:57:14.411Z,28.91
2017-07-30T16:57:55.023Z,28.81
2017-07-30T16:58:35.685Z,28.93
2017-07-30T16:59:16.273Z,28.93
2017-07-30T16:59:56.887Z,28.89
2017-07-30T17:00:37.461Z,28.79
2017-07-30T17:01:18.027Z,28.79
2017-07-30T17:01:58.633Z,28.89
2017-07-30T17:02:39.205Z,28.79
2017-07-30T17:03:19.823Z,28.88
2017-07-30T17:04:00.406Z,28.88
2017-07-30T17:04:40.985Z,28.81
2017-07-30T17:05:21.591Z,28.79
2017-07-30T17:06:02.201Z,28.79
2017-07-30T17:06:42.909Z,28.81
2017-07-30T17:07:23.494Z,28.84
2017-07-30T17:08:04.053Z,28.84
2017-07-30T17:08:44.635Z,28.72
2017-07-30T17:09:25.233Z,28.84
2017-07-30T17:10:05.831Z,28.84
2017-07-30T17:10:46.480Z,28.86
2017-07-30T17:11:27.080Z,28.78
2017-07-30T17:12:07.694Z,28.88
2017-07-30T17:12:48.325Z,28.81
2017-07-30T17:13:28.921Z,28.82
2017-07-30T17:14:09.510Z,28.84
2017-07-30T17:14:50.095Z,28.78
2017-07-30T17:15:30.692Z,28.85
2017-07-30T17:16:11.274Z,28.84
2017-07-30T17:16:51.849Z,28.74
2017-07-30T17:17:32.424Z,28.74
2017-07-30T17:18:13.018Z,28.7
2017-07-30T17:18:53.600Z,28.7
2017-07-30T17:19:34.238Z,28.7
2017-07-30T17:20:14.804Z,28.76
2017-07-30T17:20:55.443Z,28.74
2017-07-30T17:21:36.073Z,28.67
2017-07-30T17:22:16.703Z,28.66
2017-07-30T17:22:57.294Z,28.66
2017-07-30T17:23:37.885Z,28.67
2017-07-30T17:24:18.490Z,28.72
2017-07-30T17:24:59.096Z,28.63
2017-07-30T17:25:39.659Z,28.72
2017-07-30T17:26:20.245Z,28.64
2017-07-30T17:27:00.842Z,28.6
2017-07-30T17:27:41.449Z,28.59
2017-07-30T17:28:22.016Z,28.54
2017-07-30T17:29:02.598Z,28.6
2017-07-30T17:29:43.198Z,28.57
2017-07-30T17:30:23.766Z,28.56
2017-07-30T17:31:04.397Z,28.54
2017-07-30T17:31:44.977Z,28.49
2017-07-30T17:32:25.568Z,28.54
2017-07-30T17:33:06.165Z,28.51
2017-07-30T17:33:46.773Z,28.49
2017-07-30T17:34:27.429Z,28.45
2017-07-30T17:35:08.109Z,28.49
2017-07-30T17:35:48.680Z,28.47
2017-07-30T17:36:29.271Z,28.41
2017-07-30T17:37:10.075Z,28.49
2017-07-30T17:37:50.635Z,28.44
2017-07-30T17:38:31.253Z,28.41
2017-07-30T17:39:12.112Z,28.47
2017-07-30T17:39:52.687Z,28.51
2017-07-30T17:40:33.284Z,28.39
2017-07-30T17:41:13.866Z,28.41
2017-07-30T17:41:54.505Z,28.45
2017-07-30T17:42:35.087Z,28.41
2017-07-30T17:43:15.666Z,28.38
2017-07-30T17:43:56.266Z,28.37
2017-07-30T17:44:36.876Z,28.37
2017-07-30T17:45:18.174Z,28.37
2017-07-30T17:45:59.502Z,28.3
2017-07-30T17:46:41.944Z,28.26
2017-07-30T17:47:22.554Z,28.37
2017-07-30T17:48:04.560Z,28.27
2017-07-30T17:48:45.180Z,28.33
2017-07-30T17:49:33.375Z,28.29
2017-07-30T17:50:15.673Z,28.27
2017-07-30T17:50:59.860Z,28.25
2017-07-30T17:51:42.013Z,28.25
2017-07-30T17:52:23.208Z,28.23
2017-07-30T17:53:03.810Z,28.22
2017-07-30T17:53:44.392Z,28.11
2017-07-30T17:54:24.958Z,28.11
2017-07-30T17:55:05.538Z,28.08
2017-07-30T17:55:46.122Z,28.12
2017-07-30T17:56:26.722Z,28.1
2017-07-30T17:57:07.273Z,28.15
2017-07-30T17:57:47.925Z,28.11
2017-07-30T17:58:28.508Z,27.96
2017-07-30T17:59:09.091Z,28
2017-07-30T17:59:49.696Z,28.02
2017-07-30T18:00:30.270Z,28
2017-07-30T18:01:10.832Z,28.05
2017-07-30T18:01:51.426Z,28.02
2017-07-30T18:02:32.033Z,27.96
2017-07-30T18:03:12.615Z,28
2017-07-30T18:03:53.180Z,28
2017-07-30T18:04:33.763Z,27.96
2017-07-30T18:05:14.368Z,27.93
2017-07-30T18:05:54.972Z,27.95
2017-07-30T18:06:35.557Z,27.98
2017-07-30T18:07:16.225Z,27.93
2017-07-30T18:07:56.818Z,27.85
2017-07-30T18:08:37.433Z,27.82
2017-07-30T18:09:18.021Z,27.82
2017-07-30T18:09:58.588Z,27.82
2017-07-30T18:10:39.175Z,27.82
2017-07-30T18:11:19.776Z,27.8
2017-07-30T18:12:00.362Z,27.8
2017-07-30T18:12:40.951Z,27.82
2017-07-30T18:13:21.612Z,27.82
2017-07-30T18:14:02.182Z,27.83
2017-07-30T18:14:42.801Z,27.77
2017-07-30T18:15:23.381Z,27.82
2017-07-30T18:16:03.974Z,27.78
2017-07-30T18:16:44.579Z,27.7
2017-07-30T18:17:25.132Z,27.73
2017-07-30T18:18:05.723Z,27.8
2017-07-30T18:18:46.321Z,27.74
2017-07-30T18:19:26.905Z,27.77
2017-07-30T18:20:07.621Z,27.8
2017-07-30T18:20:48.187Z,27.73
2017-07-30T18:21:28.771Z,27.71
2017-07-30T18:22:09.372Z,27.67
2017-07-30T18:22:49.964Z,27.68
2017-07-30T18:23:30.576Z,27.65
2017-07-30T18:24:11.162Z,27.55
2017-07-30T18:24:51.768Z,27.64
2017-07-30T18:25:32.371Z,27.49
2017-07-30T18:26:12.948Z,27.52
2017-07-30T18:26:53.600Z,27.6
2017-07-30T18:27:34.193Z,27.59
2017-07-30T18:28:14.786Z,27.6
2017-07-30T18:28:55.397Z,27.54
2017-07-30T18:29:35.983Z,27.54
2017-07-30T18:30:16.595Z,27.55
2017-07-30T18:30:57.644Z,27.55
2017-07-30T18:31:38.274Z,27.52
2017-07-30T18:32:18.863Z,27.47
2017-07-30T18:32:59.915Z,27.45
2017-07-30T18:33:40.881Z,27.51
2017-07-30T18:34:21.477Z,27.51
2017-07-30T18:35:02.102Z,27.42
2017-07-30T18:35:42.682Z,27.51
2017-07-30T18:36:23.286Z,27.47
2017-07-30T18:37:03.957Z,27.45
2017-07-30T18:37:44.566Z,27.47
2017-07-30T18:38:25.201Z,27.44
2017-07-30T18:39:05.769Z,27.52
2017-07-30T18:39:46.386Z,27.39
2017-07-30T18:40:26.960Z,27.42
2017-07-30T18:41:07.558Z,27.52
2017-07-30T18:41:48.140Z,27.47
2017-07-30T18:42:28.726Z,27.52
2017-07-30T18:43:09.341Z,27.45
2017-07-30T18:43:49.940Z,27.35
2017-07-30T18:44:30.570Z,27.42
2017-07-30T18:45:11.094Z,27.39
2017-07-30T18:45:51.696Z,27.42
2017-07-30T18:46:32.366Z,27.4
2017-07-30T18:47:12.964Z,27.4
2017-07-30T18:47:53.535Z,27.39
2017-07-30T18:48:34.133Z,27.37
2017-07-30T18:49:14.718Z,27.36
2017-07-30T18:49:55.293Z,27.33
2017-07-30T18:50:35.888Z,27.33
2017-07-30T18:51:16.453Z,27.4
2017-07-30T18:51:57.039Z,27.35
2017-07-30T18:52:37.637Z,27.29
2017-07-30T18:53:18.248Z,27.29
2017-07-30T18:53:58.864Z,27.35
2017-07-30T18:54:39.423Z,27.3
2017-07-30T18:55:20.016Z,27.36
2017-07-30T18:56:00.595Z,27.27
2017-07-30T18:56:41.199Z,27.39
2017-07-30T18:57:21.820Z,27.36
2017-07-30T18:58:02.406Z,27.32
2017-07-30T18:58:42.997Z,27.29
2017-07-30T18:59:23.575Z,27.3
2017-07-30T19:00:04.194Z,27.32
2017-07-30T19:00:44.794Z,27.32
2017-07-30T19:01:25.416Z,27.32
2017-07-30T19:02:05.995Z,27.25
2017-07-30T19:02:46.581Z,27.29
2017-07-30T19:03:27.207Z,27.21
2017-07-30T19:04:07.826Z,27.2
2017-07-30T19:04:48.406Z,27.25
2017-07-30T19:05:28.995Z,27.22
2017-07-30T19:06:09.601Z,27.22
2017-07-30T19:06:50.191Z,27.18
2017-07-30T19:07:30.796Z,27.22
2017-07-30T19:08:11.379Z,27.22
2017-07-30T19:08:52.039Z,27.22
2017-07-30T19:09:32.652Z,27.21
2017-07-30T19:10:13.237Z,27.15
2017-07-30T19:10:53.828Z,27.18
2017-07-30T19:11:34.423Z,27.17
2017-07-30T19:12:15.037Z,27.17
2017-07-30T19:12:55.622Z,27.14
2017-07-30T19:13:36.211Z,27.1
2017-07-30T19:14:16.807Z,27.08
2017-07-30T19:14:57.384Z,27.1
2017-07-30T19:15:37.962Z,27.12
2017-07-30T19:16:18.539Z,27.05
2017-07-30T19:16:59.114Z,27.12
2017-07-30T19:17:39.712Z,27
2017-07-30T19:18:20.279Z,27.05
2017-07-30T19:19:00.856Z,27.05
2017-07-30T19:19:41.476Z,27.03
2017-07-30T19:20:22.052Z,27.07
2017-07-30T19:21:02.642Z,27.08
2017-07-30T19:21:43.212Z,27.05
2017-07-30T19:22:23.808Z,27
2017-07-30T19:23:04.439Z,26.96
2017-07-30T19:23:45.024Z,27.02
2017-07-30T19:24:25.642Z,26.96
2017-07-30T19:25:06.294Z,26.97
2017-07-30T19:25:46.906Z,26.92
2017-07-30T19:26:27.489Z,26.96
2017-07-30T19:27:08.095Z,26.92
2017-07-30T19:27:48.667Z,26.93
2017-07-30T19:28:29.294Z,26.92
2017-07-30T19:29:09.860Z,26.92
2017-07-30T19:29:50.453Z,26.9
2017-07-30T19:30:31.049Z,26.8
2017-07-30T19:31:11.666Z,26.8
2017-07-30T19:31:52.262Z,26.84
2017-07-30T19:32:32.852Z,26.84
2017-07-30T19:33:13.459Z,26.81
2017-07-30T19:33:54.074Z,26.81
2017-07-30T19:34:34.684Z,26.85
2017-07-30T19:35:15.294Z,26.8
2017-07-30T19:35:55.900Z,26.85
2017-07-30T19:36:36.575Z,26.81
2017-07-30T19:37:17.158Z,26.81
2017-07-30T19:37:57.751Z,26.77
2017-07-30T19:38:38.340Z,26.75
2017-07-30T19:39:18.949Z,26.8
2017-07-30T19:39:59.560Z,26.8
2017-07-30T19:40:40.198Z,26.77
2017-07-30T19:41:20.789Z,26.8
2017-07-30T19:42:01.379Z,26.73
2017-07-30T19:42:41.965Z,26.68
2017-07-30T19:43:22.554Z,26.77
2017-07-30T19:44:03.141Z,26.73
2017-07-30T19:44:43.780Z,26.8
2017-07-30T19:45:24.379Z,26.75
2017-07-30T19:46:04.984Z,26.77
2017-07-30T19:46:45.579Z,26.63
2017-07-30T19:47:26.182Z,26.7
2017-07-30T19:48:06.818Z,26.73
2017-07-30T19:48:47.427Z,26.68
2017-07-30T19:49:28.015Z,26.68
2017-07-30T19:50:08.587Z,26.74
2017-07-30T19:50:49.162Z,26.71
2017-07-30T19:51:29.741Z,26.77
2017-07-30T19:52:10.368Z,26.71
2017-07-30T19:52:51.213Z,26.7
2017-07-30T19:53:31.941Z,26.66
2017-07-30T19:54:12.562Z,26.73
2017-07-30T19:54:53.275Z,26.7
2017-07-30T19:55:33.762Z,26.68
2017-07-30T19:56:14.341Z,26.7
2017-07-30T19:56:54.958Z,26.66
2017-07-30T19:57:35.618Z,26.75
2017-07-30T19:58:16.511Z,26.75
2017-07-30T19:58:57.143Z,26.63
2017-07-30T19:59:37.901Z,26.62
2017-07-30T20:00:18.610Z,26.59
2017-07-30T20:00:59.241Z,26.65
2017-07-30T20:01:39.899Z,26.66
2017-07-30T20:02:20.690Z,26.65
2017-07-30T20:03:01.518Z,26.63
2017-07-30T20:03:42.223Z,26.56
2017-07-30T20:04:22.952Z,26.62
2017-07-30T20:05:03.729Z,26.56
2017-07-30T20:05:44.333Z,26.52
2017-07-30T20:06:24.948Z,26.52
2017-07-30T20:07:05.745Z,26.52
2017-07-30T20:07:46.414Z,26.6
2017-07-30T20:08:27.260Z,26.48
2017-07-30T20:09:08.084Z,26.51
2017-07-30T20:09:48.781Z,26.45
2017-07-30T20:10:29.361Z,26.48
2017-07-30T20:11:09.989Z,26.41
2017-07-30T20:11:50.773Z,26.52
2017-07-30T20:12:31.399Z,26.44
2017-07-30T20:13:12.033Z,26.45
2017-07-30T20:13:52.604Z,26.45
2017-07-30T20:14:33.173Z,26.33
2017-07-30T20:15:13.780Z,26.36
2017-07-30T20:15:54.394Z,26.4
2017-07-30T20:16:36.800Z,26.34
2017-07-30T20:17:17.545Z,26.37
2017-07-30T20:17:58.238Z,26.38
2017-07-30T20:18:38.877Z,26.34
2017-07-30T20:19:19.473Z,26.25
2017-07-30T20:20:00.255Z,26.31
2017-07-30T20:20:40.970Z,26.28
2017-07-30T20:21:21.666Z,26.29
2017-07-30T20:22:02.245Z,26.25
2017-07-30T20:22:42.856Z,26.28
2017-07-30T20:23:23.445Z,26.28
2017-07-30T20:24:04.030Z,26.28
2017-07-30T20:24:44.636Z,26.16
2017-07-30T20:25:25.255Z,26.33
2017-07-30T20:26:05.986Z,26.13
2017-07-30T20:26:46.638Z,26.22
2017-07-30T20:27:27.337Z,26.1
2017-07-30T20:28:07.943Z,26.18
2017-07-30T20:28:48.573Z,26.1
2017-07-30T20:29:29.151Z,26.23
2017-07-30T20:30:09.746Z,26.18
2017-07-30T20:30:50.510Z,26.23
2017-07-30T20:31:33.410Z,26.23
2017-07-30T20:32:20.224Z,26.19
2017-07-30T20:33:03.614Z,26.1
2017-07-30T20:33:44.639Z,26.1
2017-07-30T20:34:25.399Z,26.06
2017-07-30T20:36:19.765Z,26.15
2017-07-30T20:37:03.967Z,26.07
2017-07-30T20:39:09.353Z,26.06
2017-07-30T20:39:56.405Z,25.99
2017-07-30T20:40:38.024Z,25.98
2017-07-30T20:41:25.493Z,25.91
2017-07-30T20:42:09.277Z,26.02
2017-07-30T20:42:51.068Z,25.85
2017-07-30T20:43:34.435Z,26.03
2017-07-30T20:44:15.751Z,25.96
2017-07-30T20:45:02.212Z,25.9
2017-07-30T20:45:49.429Z,25.88
2017-07-30T20:46:32.647Z,25.84
2017-07-30T20:47:13.470Z,25.93
2017-07-30T20:47:58.432Z,25.85
2017-07-30T20:48:38.306Z,25.83
2017-07-30T20:49:19.660Z,25.81
2017-07-30T20:50:00.555Z,25.78
2017-07-30T20:50:43.055Z,25.81
2017-07-30T20:51:27.996Z,25.85
2017-07-30T20:52:10.339Z,25.81
2017-07-30T20:52:53.702Z,25.78
2017-07-30T20:53:41.878Z,25.83
2017-07-30T20:54:23.384Z,25.83
2017-07-30T20:55:05.600Z,25.83
2017-07-30T20:55:47.282Z,25.87
2017-07-30T20:56:28.410Z,25.87
2017-07-30T20:57:10.562Z,25.84
2017-07-30T20:57:51.465Z,25.83
2017-07-30T20:59:46.465Z,25.81
2017-07-30T21:00:33.660Z,25.85
2017-07-30T21:01:14.691Z,25.77
2017-07-30T21:01:59.380Z,25.8
2017-07-30T21:02:41.018Z,25.78
2017-07-30T21:03:22.601Z,25.78
2017-07-30T21:04:03.323Z,25.7
2017-07-30T21:04:50.242Z,25.7
2017-07-30T21:05:39.879Z,25.75
2017-07-30T21:06:22.406Z,25.73
2017-07-30T21:07:03.039Z,25.72
2017-07-30T21:07:44.977Z,25.7
2017-07-30T21:08:28.059Z,25.68
2017-07-30T21:09:10.843Z,25.73
2017-07-30T21:09:52.055Z,25.72
2017-07-30T21:10:34.591Z,25.7
2017-07-30T21:11:15.820Z,25.69
2017-07-30T21:12:04.446Z,25.62
2017-07-30T21:12:46.580Z,25.69
2017-07-30T21:13:31.871Z,25.53
2017-07-30T21:14:12.935Z,25.53
2017-07-30T21:14:53.991Z,25.53
2017-07-30T21:15:35.919Z,25.58
2017-07-30T21:16:16.840Z,25.55
2017-07-30T21:16:58.635Z,25.59
2017-07-30T21:17:40.404Z,25.58
2017-07-30T21:18:23.561Z,25.48
2017-07-30T21:19:04.341Z,25.58
2017-07-30T21:19:45.622Z,25.55
2017-07-30T21:20:26.216Z,25.46
2017-07-30T21:21:06.806Z,25.55
2017-07-30T21:21:47.427Z,25.48
2017-07-30T21:22:28.025Z,25.54
2017-07-30T21:23:08.642Z,25.58
2017-07-30T21:23:49.218Z,25.43
2017-07-30T21:24:29.797Z,25.54
2017-07-30T21:25:10.382Z,25.46
2017-07-30T21:25:50.983Z,25.38
2017-07-30T21:26:31.562Z,25.47
2017-07-30T21:27:12.179Z,25.47
2017-07-30T21:27:52.768Z,25.51
2017-07-30T21:28:33.363Z,25.5
2017-07-30T21:29:13.925Z,25.44
2017-07-30T21:29:54.541Z,25.46
2017-07-30T21:30:35.122Z,25.47
2017-07-30T21:31:15.711Z,25.41
2017-07-30T21:31:56.341Z,25.41
2017-07-30T21:32:36.904Z,25.47
2017-07-30T21:33:17.485Z,25.48
2017-07-30T21:33:58.049Z,25.4
2017-07-30T21:34:38.636Z,25.41
2017-07-30T21:35:19.216Z,25.36
2017-07-30T21:35:59.829Z,25.38
2017-07-30T21:36:40.439Z,25.38
2017-07-30T21:37:21.043Z,25.36
2017-07-30T21:38:01.659Z,25.4
2017-07-30T21:38:42.252Z,25.36
2017-07-30T21:39:22.847Z,25.33
2017-07-30T21:40:03.521Z,25.32
2017-07-30T21:40:44.125Z,25.31
2017-07-30T21:41:24.732Z,25.28
2017-07-30T21:42:05.337Z,25.23
2017-07-30T21:42:45.970Z,25.26
2017-07-30T21:43:26.613Z,25.26
2017-07-30T21:44:07.207Z,25.23
2017-07-30T21:44:47.779Z,25.21
2017-07-30T21:45:28.359Z,25.23
2017-07-30T21:46:08.943Z,25.25
2017-07-30T21:46:49.559Z,25.23
2017-07-30T21:47:30.150Z,25.25
2017-07-30T21:48:10.786Z,25.26
2017-07-30T21:48:51.374Z,25.18
2017-07-30T21:49:31.995Z,25.17
2017-07-30T21:50:12.572Z,25.16
2017-07-30T21:50:53.146Z,25.14
2017-07-30T21:51:33.717Z,25.14
2017-07-30T21:52:14.293Z,25.21
2017-07-30T21:52:54.868Z,25.16
2017-07-30T21:53:35.445Z,25.13
2017-07-30T21:54:16.021Z,25.07
2017-07-30T21:54:56.624Z,25.07
2017-07-30T21:55:37.205Z,25.13
2017-07-30T21:56:17.764Z,25.1
2017-07-30T21:56:58.334Z,25.1
2017-07-30T21:57:38.899Z,25.08
2017-07-30T21:58:19.474Z,25.07
2017-07-30T21:59:00.075Z,25.11
2017-07-30T21:59:40.636Z,25.1
2017-07-30T22:00:21.203Z,25.06
2017-07-30T22:01:01.778Z,25.08
2017-07-30T22:01:42.347Z,25.08
2017-07-30T22:02:22.910Z,25.03
2017-07-30T22:03:03.494Z,25.03
2017-07-30T22:03:44.066Z,24.99
2017-07-30T22:04:24.648Z,24.96
2017-07-30T22:05:05.276Z,24.96
2017-07-30T22:05:45.856Z,24.95
2017-07-30T22:06:26.422Z,24.91
2017-07-30T22:07:07.035Z,24.95
2017-07-30T22:07:47.622Z,24.98
2017-07-30T22:08:28.211Z,24.96
2017-07-30T22:09:08.785Z,24.95
2017-07-30T22:09:49.372Z,24.91
2017-07-30T22:10:29.938Z,24.86
2017-07-30T22:11:10.516Z,24.89
2017-07-30T22:11:51.083Z,24.85
2017-07-30T22:12:31.715Z,24.77
2017-07-30T22:13:12.296Z,24.77
2017-07-30T22:13:52.865Z,24.84
2017-07-30T22:14:33.466Z,24.8
2017-07-30T22:15:14.024Z,24.77
2017-07-30T22:15:54.598Z,24.78
2017-07-30T22:16:35.184Z,24.76
2017-07-30T22:17:15.787Z,24.74
2017-07-30T22:17:56.456Z,24.7
2017-07-30T22:18:37.079Z,24.74
2017-07-30T22:19:17.664Z,24.88
2017-07-30T22:19:58.232Z,24.7
2017-07-30T22:20:38.809Z,24.77
2017-07-30T22:21:19.422Z,24.73
2017-07-30T22:21:59.989Z,24.74
2017-07-30T22:22:40.594Z,24.7
2017-07-30T22:23:21.166Z,24.77
2017-07-30T22:24:01.735Z,24.65
2017-07-30T22:24:42.312Z,24.73
2017-07-30T22:25:22.928Z,24.76
2017-07-30T22:26:03.545Z,24.65
2017-07-30T22:26:44.115Z,24.65
2017-07-30T22:27:24.721Z,24.68
2017-07-30T22:28:05.341Z,24.61
2017-07-30T22:28:45.923Z,24.61
2017-07-30T22:29:26.505Z,24.6
2017-07-30T22:30:07.194Z,24.69
2017-07-30T22:30:47.744Z,24.63
2017-07-30T22:31:28.331Z,24.61
2017-07-30T22:32:08.914Z,24.57
2017-07-30T22:32:49.479Z,24.61
2017-07-30T22:33:30.076Z,24.63
2017-07-30T22:34:10.646Z,24.58
2017-07-30T22:34:51.220Z,24.61
2017-07-30T22:35:31.796Z,24.6
2017-07-30T22:36:12.359Z,24.65
2017-07-30T22:36:52.941Z,24.58
2017-07-30T22:37:33.507Z,24.53
2017-07-30T22:38:14.108Z,24.51
2017-07-30T22:38:54.699Z,24.51
2017-07-30T22:39:35.279Z,24.54
2017-07-30T22:40:15.861Z,24.54
2017-07-30T22:40:56.462Z,24.54
2017-07-30T22:41:37.033Z,24.55
2017-07-30T22:42:17.611Z,24.57
2017-07-30T22:42:58.201Z,24.5
2017-07-30T22:43:38.778Z,24.61
2017-07-30T22:44:19.372Z,24.48
2017-07-30T22:44:59.938Z,24.51
2017-07-30T22:45:40.491Z,24.55
2017-07-30T22:46:21.087Z,24.54
2017-07-30T22:47:01.664Z,24.42
2017-07-30T22:47:42.232Z,24.53
2017-07-30T22:48:22.808Z,24.45
2017-07-30T22:49:03.387Z,24.47
2017-07-30T22:49:43.978Z,24.43
2017-07-30T22:50:24.535Z,24.48
2017-07-30T22:51:05.114Z,24.47
2017-07-30T22:51:45.693Z,24.42
2017-07-30T22:52:26.275Z,24.43
2017-07-30T22:53:06.867Z,24.39
2017-07-30T22:53:47.442Z,24.43
2017-07-30T22:54:28.029Z,24.45
2017-07-30T22:55:08.598Z,24.39
2017-07-30T22:55:49.172Z,24.47
2017-07-30T22:56:29.765Z,24.32
2017-07-30T22:57:10.339Z,24.38
2017-07-30T22:57:50.920Z,24.32
2017-07-30T22:58:31.494Z,24.38
2017-07-30T22:59:12.128Z,24.28
2017-07-30T22:59:52.713Z,24.36
2017-07-30T23:00:33.273Z,24.33
2017-07-30T23:01:13.860Z,24.29
2017-07-30T23:01:54.430Z,24.35
2017-07-30T23:02:35.003Z,24.29
2017-07-30T23:03:15.592Z,24.28
2017-07-30T23:03:56.191Z,24.26
2017-07-30T23:04:36.759Z,24.23
2017-07-30T23:05:17.342Z,24.26
2017-07-30T23:05:57.902Z,24.26
2017-07-30T23:06:38.495Z,24.24
2017-07-30T23:07:19.059Z,24.2
2017-07-30T23:07:59.634Z,24.18
2017-07-30T23:08:40.234Z,24.24
2017-07-30T23:09:20.821Z,24.23
2017-07-30T23:10:01.406Z,24.18
2017-07-30T23:10:42.028Z,24.2
2017-07-30T23:11:22.604Z,24.18
2017-07-30T23:12:03.180Z,24.32
2017-07-30T23:12:43.768Z,24.2
2017-07-30T23:13:24.355Z,24.16
2017-07-30T23:14:04.934Z,24.18
2017-07-30T23:14:45.552Z,24.18
2017-07-30T23:15:26.084Z,24.16
2017-07-30T23:16:06.682Z,24.18
2017-07-30T23:16:47.288Z,24.18
2017-07-30T23:17:27.884Z,24.24
2017-07-30T23:18:08.467Z,24.24
2017-07-30T23:18:49.026Z,24.11
2017-07-30T23:19:29.598Z,24.17
2017-07-30T23:20:10.177Z,24.17
2017-07-30T23:20:50.777Z,24.2
2017-07-30T23:21:31.352Z,24.17
2017-07-30T23:22:11.920Z,24.13
2017-07-30T23:22:52.490Z,24.13
2017-07-30T23:23:33.045Z,24.16
2017-07-30T23:24:13.620Z,24.11
2017-07-30T23:24:54.209Z,24.02
2017-07-30T23:25:34.780Z,24.2
2017-07-30T23:26:15.399Z,24.05
2017-07-30T23:26:55.991Z,24.18
2017-07-30T23:27:36.604Z,24.14
2017-07-30T23:28:17.205Z,24.11
2017-07-30T23:28:57.779Z,24.06
2017-07-30T23:29:38.354Z,24.13
2017-07-30T23:30:18.949Z,24.16
2017-07-30T23:30:59.568Z,24.02
2017-07-30T23:31:40.178Z,24.05
2017-07-30T23:32:20.775Z,24.13
2017-07-30T23:33:01.345Z,24.08
2017-07-30T23:33:41.974Z,24.05
2017-07-30T23:34:22.573Z,24.06
2017-07-30T23:35:03.145Z,24.1
2017-07-30T23:35:43.740Z,24.1
2017-07-30T23:36:24.289Z,24.13
2017-07-30T23:37:04.880Z,24.11
2017-07-30T23:37:45.464Z,24.02
2017-07-30T23:38:26.049Z,24.08
2017-07-30T23:39:06.681Z,24.01
2017-07-30T23:39:47.269Z,23.99
2017-07-30T23:40:27.904Z,23.95
2017-07-30T23:41:08.486Z,23.99
2017-07-30T23:41:49.070Z,23.98
2017-07-30T23:42:29.629Z,23.98
2017-07-30T23:43:10.215Z,24.06
2017-07-30T23:43:50.795Z,24.05
2017-07-30T23:44:31.370Z,23.93
2017-07-30T23:45:11.990Z,24.01
2017-07-30T23:45:52.582Z,23.96
2017-07-30T23:46:33.170Z,23.98
2017-07-30T23:47:13.818Z,23.99
2017-07-30T23:47:54.397Z,23.93
2017-07-30T23:48:35.010Z,23.95
2017-07-30T23:49:15.607Z,23.93
2017-07-30T23:49:56.175Z,23.88
2017-07-30T23:50:36.767Z,23.92
2017-07-30T23:51:17.355Z,23.99
2017-07-30T23:51:57.970Z,23.87
2017-07-30T23:52:38.556Z,23.95
2017-07-30T23:53:19.172Z,23.92
2017-07-30T23:53:59.767Z,23.8
2017-07-30T23:54:40.368Z,23.86
2017-07-30T23:55:20.941Z,23.78
2017-07-30T23:56:01.517Z,23.88
2017-07-30T23:56:42.092Z,23.83
2017-07-30T23:57:22.675Z,23.81
2017-07-30T23:58:03.250Z,23.86
2017-07-30T23:58:43.829Z,23.87
2017-07-30T23:59:24.431Z,23.87
